createdAt,value
2018-09-27T00:00:40.245Z,7.40
2018-09-27T00:03:12.840Z,7.33
2018-09-27T00:05:45.651Z,7.19
2018-09-27T00:08:19.572Z,7.16
2018-09-27T00:10:53.880Z,7.06
2018-09-27T00:13:26.324Z,7.04
2018-09-27T00:15:59.616Z,7.11
2018-09-27T00:18:37.041Z,7.19
2018-09-27T00:21:10.498Z,7.18
2018-09-27T00:23:43.559Z,7.17
2018-09-27T00:26:16.672Z,7.22
2018-09-27T00:28:49.202Z,7.22
2018-09-27T00:31:22.212Z,7.20
2018-09-27T00:33:54.750Z,7.12
2018-09-27T00:36:27.388Z,7.00
2018-09-27T00:39:00.260Z,6.95
2018-09-27T00:41:33.072Z,6.97
2018-09-27T00:44:05.770Z,6.92
2018-09-27T00:46:38.836Z,6.86
2018-09-27T00:49:11.525Z,6.87
2018-09-27T00:51:46.574Z,6.93
2018-09-27T00:54:19.804Z,6.99
2018-09-27T00:56:52.580Z,7.04
2018-09-27T00:59:25.519Z,7.08
2018-09-27T01:01:58.540Z,7.08
2018-09-27T01:04:31.254Z,7.03
2018-09-27T01:07:03.881Z,6.91
2018-09-27T01:09:37.428Z,6.78
2018-09-27T01:12:10.036Z,6.75
2018-09-27T01:14:42.535Z,6.78
2018-09-27T01:17:15.511Z,6.84
2018-09-27T01:19:48.136Z,6.89
2018-09-27T01:22:20.737Z,6.93
2018-09-27T01:24:53.776Z,6.91
2018-09-27T01:27:26.449Z,6.82
2018-09-27T01:29:59.173Z,6.84
2018-09-27T01:32:34.324Z,6.83
2018-09-27T01:35:07.177Z,6.80
2018-09-27T01:37:39.724Z,6.82
2018-09-27T01:40:12.797Z,6.91
2018-09-27T01:42:45.411Z,6.80
2018-09-27T01:45:18.284Z,6.67
2018-09-27T01:47:52.456Z,6.58
2018-09-27T01:50:25.000Z,6.57
2018-09-27T01:52:57.548Z,6.58
2018-09-27T01:55:30.428Z,6.52
2018-09-27T01:58:02.992Z,6.47
2018-09-27T02:00:35.628Z,6.43
2018-09-27T02:03:08.616Z,6.49
2018-09-27T02:09:01.049Z,6.73
2018-09-27T02:11:33.862Z,6.69
2018-09-27T02:14:06.667Z,6.73
2018-09-27T02:16:39.328Z,6.64
2018-09-27T02:19:12.461Z,6.53
2018-09-27T02:21:45.032Z,6.47
2018-09-27T02:24:17.632Z,6.38
2018-09-27T02:26:50.769Z,6.26
2018-09-27T02:29:25.284Z,6.14
2018-09-27T02:31:58.424Z,6.22
2018-09-27T02:34:31.336Z,6.29
2018-09-27T02:37:03.996Z,6.23
2018-09-27T02:39:37.401Z,6.19
2018-09-27T02:42:13.024Z,6.19
2018-09-27T02:44:48.386Z,6.31
2018-09-27T02:47:21.824Z,6.39
2018-09-27T02:49:55.510Z,6.30
2018-09-27T02:52:28.481Z,6.21
2018-09-27T02:55:01.872Z,6.21
2018-09-27T02:57:35.640Z,6.18
2018-09-27T03:00:07.629Z,6.16
2018-09-27T03:02:40.200Z,6.11
2018-09-27T03:05:12.954Z,6.03
2018-09-27T03:07:45.574Z,5.93
2018-09-27T03:10:18.536Z,5.86
2018-09-27T03:12:51.828Z,5.84
2018-09-27T03:15:24.281Z,5.87
2018-09-27T03:17:56.888Z,6.01
2018-09-27T03:20:29.909Z,6.05
2018-09-27T03:23:02.512Z,5.93
2018-09-27T03:25:35.061Z,6.00
2018-09-27T03:28:08.194Z,6.13
2018-09-27T03:30:41.048Z,6.17
2018-09-27T03:33:13.486Z,6.14
2018-09-27T03:35:46.508Z,6.09
2018-09-27T03:38:19.128Z,6.10
2018-09-27T03:40:51.725Z,6.09
2018-09-27T03:43:24.688Z,6.13
2018-09-27T03:45:57.317Z,6.09
2018-09-27T03:48:31.996Z,6.05
2018-09-27T03:51:05.138Z,5.92
2018-09-27T03:53:37.504Z,5.87
2018-09-27T03:56:10.076Z,5.90
2018-09-27T03:58:43.884Z,5.84
2018-09-27T04:01:16.369Z,5.79
2018-09-27T04:03:49.017Z,5.79
2018-09-27T04:06:23.890Z,5.92
2018-09-27T04:08:58.796Z,6.08
2018-09-27T04:11:32.612Z,6.12
2018-09-27T04:14:05.542Z,6.15
2018-09-27T04:16:39.261Z,6.12
2018-09-27T04:19:11.882Z,6.09
2018-09-27T04:21:46.719Z,6.07
2018-09-27T04:24:19.200Z,6.05
2018-09-27T04:26:52.009Z,6.06
2018-09-27T04:29:26.506Z,6.05
2018-09-27T04:31:59.454Z,6.05
2018-09-27T04:34:32.271Z,6.04
2018-09-27T04:37:09.071Z,5.93
2018-09-27T04:39:42.920Z,5.84
2018-09-27T04:42:16.545Z,5.80
2018-09-27T04:44:49.533Z,5.76
2018-09-27T04:47:22.299Z,5.75
2018-09-27T04:49:54.778Z,5.73
2018-09-27T04:52:29.399Z,5.73
2018-09-27T04:55:05.093Z,5.69
2018-09-27T04:57:37.585Z,5.70
2018-09-27T05:00:10.591Z,5.79
2018-09-27T05:02:44.865Z,5.87
2018-09-27T05:05:17.372Z,5.86
2018-09-27T05:07:50.134Z,5.82
2018-09-27T05:10:23.440Z,5.76
2018-09-27T05:12:57.897Z,5.76
2018-09-27T05:15:31.063Z,5.91
2018-09-27T05:18:03.606Z,5.98
2018-09-27T05:20:36.241Z,5.83
2018-09-27T05:23:09.129Z,5.68
2018-09-27T05:25:41.783Z,5.63
2018-09-27T05:28:14.890Z,5.77
2018-09-27T05:30:48.392Z,5.89
2018-09-27T05:33:21.040Z,5.87
2018-09-27T05:35:53.826Z,5.85
2018-09-27T05:38:26.463Z,5.81
2018-09-27T05:41:01.512Z,5.77
2018-09-27T05:43:34.236Z,5.78
2018-09-27T05:46:07.347Z,5.82
2018-09-27T05:48:39.868Z,5.87
2018-09-27T05:51:12.396Z,5.79
2018-09-27T05:53:46.666Z,5.77
2018-09-27T05:56:19.398Z,5.73
2018-09-27T05:58:54.152Z,5.62
2018-09-27T06:01:28.891Z,5.69
2018-09-27T06:04:02.224Z,5.78
2018-09-27T06:06:38.626Z,5.87
2018-09-27T06:09:13.448Z,5.95
2018-09-27T06:11:46.980Z,6.05
2018-09-27T06:14:23.268Z,6.07
2018-09-27T06:16:57.413Z,6.18
2018-09-27T06:19:32.301Z,6.26
2018-09-27T06:22:05.416Z,6.42
2018-09-27T06:24:38.896Z,6.52
2018-09-27T06:27:12.589Z,6.66
2018-09-27T06:29:47.385Z,6.88
2018-09-27T06:32:20.085Z,7.09
2018-09-27T06:34:52.678Z,7.16
2018-09-27T06:37:26.772Z,7.17
2018-09-27T06:39:59.444Z,7.24
2018-09-27T06:42:33.644Z,7.32
2018-09-27T06:45:10.060Z,7.44
2018-09-27T06:47:45.813Z,7.57
2018-09-27T06:50:18.277Z,7.69
2018-09-27T06:52:53.017Z,7.76
2018-09-27T06:55:25.911Z,7.87
2018-09-27T06:58:15.671Z,8.06
2018-09-27T07:00:50.833Z,8.28
2018-09-27T07:03:23.356Z,8.43
2018-09-27T07:05:55.866Z,8.53
2018-09-27T07:08:28.982Z,8.62
2018-09-27T07:11:01.686Z,8.71
2018-09-27T07:13:34.626Z,8.81
2018-09-27T07:16:09.053Z,8.91
2018-09-27T07:18:42.895Z,9.07
2018-09-27T07:21:16.813Z,9.25
2018-09-27T07:23:51.345Z,9.45
2018-09-27T07:26:24.713Z,9.63
2018-09-27T07:28:58.671Z,9.81
2018-09-27T07:31:31.645Z,9.96
2018-09-27T07:34:04.348Z,10.18
2018-09-27T07:36:37.023Z,10.52
2018-09-27T07:39:12.670Z,10.77
2018-09-27T07:41:45.995Z,11.10
2018-09-27T07:44:21.311Z,11.44
2018-09-27T07:46:53.899Z,11.82
2018-09-27T07:49:26.365Z,12.13
2018-09-27T07:52:00.196Z,12.35
2018-09-27T07:54:32.802Z,12.49
2018-09-27T07:57:06.898Z,12.77
2018-09-27T07:59:39.754Z,12.87
2018-09-27T08:02:12.382Z,13.07
2018-09-27T08:04:45.612Z,13.32
2018-09-27T08:07:19.758Z,13.37
2018-09-27T08:09:53.182Z,13.52
2018-09-27T08:12:26.133Z,13.59
2018-09-27T08:15:07.232Z,13.70
2018-09-27T08:17:41.215Z,13.72
2018-09-27T08:20:14.562Z,13.78
2018-09-27T08:22:48.350Z,13.96
2018-09-27T08:25:21.522Z,14.30
2018-09-27T08:27:54.829Z,14.93
2018-09-27T08:30:27.784Z,16.11
2018-09-27T08:33:00.315Z,17.21
2018-09-27T08:35:34.992Z,18.09
2018-09-27T08:38:09.671Z,18.63
2018-09-27T08:40:43.219Z,18.97
2018-09-27T08:43:17.400Z,19.05
2018-09-27T08:45:49.899Z,19.05
2018-09-27T08:48:25.974Z,19.09
2018-09-27T08:51:00.933Z,19.44
2018-09-27T08:53:35.152Z,19.57
2018-09-27T08:56:08.090Z,19.67
2018-09-27T08:58:41.034Z,20.06
2018-09-27T09:01:14.412Z,20.44
2018-09-27T09:03:48.692Z,20.73
2018-09-27T09:06:22.244Z,20.72
2018-09-27T09:08:55.732Z,20.65
2018-09-27T09:11:30.244Z,20.64
2018-09-27T09:14:02.831Z,20.47
2018-09-27T09:16:36.216Z,20.77
2018-09-27T09:19:08.780Z,20.78
2018-09-27T09:21:42.891Z,20.82
2018-09-27T09:24:22.396Z,20.94
2018-09-27T09:26:56.813Z,21.03
2018-09-27T09:29:30.539Z,21.05
2018-09-27T09:32:03.925Z,21.19
2018-09-27T09:34:38.444Z,21.40
2018-09-27T09:37:14.866Z,21.74
2018-09-27T09:39:47.600Z,21.89
2018-09-27T09:42:20.582Z,22.05
2018-09-27T09:44:53.941Z,21.96
2018-09-27T09:47:28.188Z,21.93
2018-09-27T09:50:02.168Z,21.88
2018-09-27T09:52:34.569Z,21.76
2018-09-27T09:55:08.145Z,21.81
2018-09-27T09:57:43.425Z,22.13
2018-09-27T10:00:19.856Z,22.32
2018-09-27T10:02:53.484Z,22.78
2018-09-27T10:05:31.350Z,22.82
2018-09-27T10:08:07.768Z,22.78
2018-09-27T10:10:46.668Z,22.85
2018-09-27T10:13:23.028Z,22.93
2018-09-27T10:15:58.750Z,23.34
2018-09-27T10:18:37.658Z,23.58
2018-09-27T10:21:14.277Z,23.70
2018-09-27T10:23:54.764Z,23.68
2018-09-27T10:26:40.242Z,23.63
2018-09-27T10:29:13.864Z,23.64
2018-09-27T10:31:48.455Z,23.74
2018-09-27T10:34:24.580Z,23.69
2018-09-27T10:36:58.820Z,23.60
2018-09-27T10:39:36.163Z,23.65
2018-09-27T10:42:10.548Z,23.71
2018-09-27T10:44:44.974Z,23.88
2018-09-27T10:47:18.784Z,23.68
2018-09-27T10:49:53.249Z,23.32
2018-09-27T10:52:27.585Z,23.24
2018-09-27T10:55:00.429Z,23.46
2018-09-27T10:57:34.700Z,23.57
2018-09-27T11:00:09.447Z,23.55
2018-09-27T11:02:42.973Z,23.62
2018-09-27T11:05:16.163Z,23.91
2018-09-27T11:07:49.591Z,24.15
2018-09-27T11:10:25.313Z,24.12
2018-09-27T11:12:58.719Z,23.90
2018-09-27T11:15:33.712Z,23.72
2018-09-27T11:18:07.800Z,23.90
2018-09-27T11:21:01.398Z,24.06
2018-09-27T11:23:53.090Z,24.21
2018-09-27T11:26:44.413Z,24.28
2018-09-27T11:29:25.390Z,24.28
2018-09-27T11:32:03.356Z,24.16
2018-09-27T11:34:38.437Z,24.23
2018-09-27T11:37:13.717Z,24.46
2018-09-27T11:39:47.037Z,24.65
2018-09-27T11:42:22.826Z,24.47
2018-09-27T11:44:58.820Z,24.15
2018-09-27T11:47:33.987Z,24.13
2018-09-27T11:50:10.330Z,24.02
2018-09-27T11:52:43.310Z,23.76
2018-09-27T11:55:19.275Z,23.60
2018-09-27T11:57:52.172Z,23.74
2018-09-27T12:00:27.715Z,23.85
2018-09-27T12:03:04.577Z,24.13
2018-09-27T12:05:37.292Z,24.31
2018-09-27T12:08:10.864Z,24.36
2018-09-27T12:10:45.856Z,24.48
2018-09-27T12:13:19.375Z,24.18
2018-09-27T12:15:58.204Z,23.95
2018-09-27T12:18:30.844Z,23.96
2018-09-27T12:21:04.004Z,24.13
2018-09-27T12:23:37.185Z,24.05
2018-09-27T12:26:10.152Z,23.90
2018-09-27T12:28:42.671Z,23.93
2018-09-27T12:31:15.596Z,24.03
2018-09-27T12:33:48.638Z,24.15
2018-09-27T12:36:21.394Z,24.14
2018-09-27T12:38:54.536Z,24.28
2018-09-27T12:41:28.429Z,24.39
2018-09-27T12:44:01.505Z,24.12
2018-09-27T12:46:34.932Z,24.13
2018-09-27T12:49:08.966Z,24.19
2018-09-27T12:51:44.013Z,24.50
2018-09-27T12:54:17.517Z,24.95
2018-09-27T12:56:50.962Z,25.05
2018-09-27T12:59:27.338Z,25.03
2018-09-27T13:02:00.748Z,24.90
2018-09-27T13:04:39.146Z,25.04
2018-09-27T13:07:14.027Z,25.09
2018-09-27T13:09:48.901Z,25.29
2018-09-27T13:12:24.111Z,25.43
2018-09-27T13:14:59.162Z,25.51
2018-09-27T13:17:33.847Z,25.55
2018-09-27T13:20:07.800Z,25.43
2018-09-27T13:22:44.056Z,25.36
2018-09-27T13:25:18.759Z,25.54
2018-09-27T13:27:59.725Z,25.71
2018-09-27T13:30:34.326Z,25.99
2018-09-27T13:33:07.850Z,26.07
2018-09-27T13:35:41.432Z,26.25
2018-09-27T13:38:16.616Z,26.48
2018-09-27T13:40:51.545Z,26.85
2018-09-27T13:43:25.892Z,27.07
2018-09-27T13:46:00.014Z,27.10
2018-09-27T13:48:39.001Z,27.18
2018-09-27T13:51:12.538Z,27.09
2018-09-27T13:53:49.432Z,27.14
2018-09-27T13:56:31.840Z,26.91
2018-09-27T13:59:09.936Z,27.02
2018-09-27T14:01:43.728Z,26.92
2018-09-27T14:04:19.644Z,26.83
2018-09-27T14:06:56.231Z,26.38
2018-09-27T14:09:29.429Z,26.26
2018-09-27T14:12:08.972Z,26.33
2018-09-27T14:14:48.740Z,26.38
2018-09-27T14:17:24.555Z,26.68
2018-09-27T14:19:59.152Z,26.74
2018-09-27T14:22:34.581Z,26.72
2018-09-27T14:25:15.325Z,26.49
2018-09-27T14:27:51.273Z,26.35
2018-09-27T14:30:27.279Z,26.30
2018-09-27T14:33:01.787Z,26.24
2018-09-27T14:35:36.541Z,26.22
2018-09-27T14:38:10.249Z,26.47
2018-09-27T14:40:43.417Z,26.69
2018-09-27T14:43:18.161Z,26.86
2018-09-27T14:45:51.772Z,27.19
2018-09-27T14:48:29.498Z,27.42
2018-09-27T14:51:04.174Z,27.63
2018-09-27T14:53:38.441Z,27.57
2018-09-27T14:56:12.841Z,27.49
2018-09-27T14:58:48.492Z,27.43
2018-09-27T15:01:24.930Z,27.34
2018-09-27T15:03:58.981Z,27.36
2018-09-27T15:06:34.828Z,27.48
2018-09-27T15:09:13.448Z,27.22
2018-09-27T15:11:48.118Z,27.20
2018-09-27T15:14:23.038Z,27.22
2018-09-27T15:16:56.773Z,27.32
2018-09-27T15:19:29.481Z,27.10
2018-09-27T15:22:02.799Z,27.09
2018-09-27T15:24:35.264Z,26.99
2018-09-27T15:27:08.772Z,26.96
2018-09-27T15:29:47.531Z,26.86
2018-09-27T15:32:20.706Z,26.94
2018-09-27T15:34:55.989Z,26.83
2018-09-27T15:37:36.289Z,26.72
2018-09-27T15:40:10.911Z,26.49
2018-09-27T15:42:45.673Z,26.33
2018-09-27T15:45:18.861Z,26.19
2018-09-27T15:47:54.815Z,26.18
2018-09-27T15:50:27.741Z,26.38
2018-09-27T15:53:02.629Z,26.53
2018-09-27T15:55:35.945Z,26.42
2018-09-27T15:58:10.220Z,26.43
2018-09-27T16:00:46.209Z,26.41
2018-09-27T16:03:21.426Z,26.52
2018-09-27T16:05:57.767Z,26.53
2018-09-27T16:08:31.861Z,26.29
2018-09-27T16:11:04.600Z,26.24
2018-09-27T16:13:37.325Z,26.16
2018-09-27T16:16:10.514Z,26.06
2018-09-27T16:18:44.807Z,26.08
2018-09-27T16:21:19.730Z,25.95
2018-09-27T16:23:54.925Z,25.75
2018-09-27T16:26:29.323Z,25.60
2018-09-27T16:29:06.762Z,25.59
2018-09-27T16:31:44.036Z,25.41
2018-09-27T16:34:33.386Z,25.17
2018-09-27T16:37:10.688Z,24.90
2018-09-27T16:39:46.673Z,24.72
2018-09-27T16:42:22.878Z,24.51
2018-09-27T16:44:57.324Z,24.29
2018-09-27T16:47:31.641Z,24.18
2018-09-27T16:50:06.730Z,24.04
2018-09-27T16:52:45.963Z,23.84
2018-09-27T16:55:21.973Z,23.62
2018-09-27T16:57:55.298Z,23.41
2018-09-27T17:00:29.324Z,23.16
2018-09-27T17:03:03.768Z,22.94
2018-09-27T17:05:38.844Z,22.67
2018-09-27T17:08:17.356Z,22.35
2018-09-27T17:10:49.860Z,21.99
2018-09-27T17:13:27.475Z,21.75
2018-09-27T17:16:03.951Z,21.48
2018-09-27T17:18:41.333Z,21.11
2018-09-27T17:21:15.530Z,20.89
2018-09-27T17:23:48.878Z,20.55
2018-09-27T17:26:22.305Z,20.21
2018-09-27T17:28:55.664Z,19.90
2018-09-27T17:31:32.947Z,19.57
2018-09-27T17:34:07.543Z,19.27
2018-09-27T17:36:42.592Z,19.02
2018-09-27T17:39:17.434Z,18.75
2018-09-27T17:41:50.228Z,18.62
2018-09-27T17:44:23.696Z,18.40
2018-09-27T17:46:57.689Z,18.15
2018-09-27T17:49:31.434Z,17.88
2018-09-27T17:52:05.968Z,17.62
2018-09-27T17:54:43.411Z,17.38
2018-09-27T17:57:21.554Z,17.15
2018-09-27T17:59:56.372Z,16.98
2018-09-27T18:02:31.168Z,16.77
2018-09-27T18:05:04.901Z,16.55
2018-09-27T18:07:39.244Z,16.36
2018-09-27T18:10:13.545Z,16.24
2018-09-27T18:12:46.121Z,16.08
2018-09-27T18:15:23.113Z,15.85
2018-09-27T18:17:57.724Z,15.59
2018-09-27T18:20:30.324Z,15.34
2018-09-27T18:23:02.964Z,15.13
2018-09-27T18:25:37.701Z,14.90
2018-09-27T18:28:11.177Z,14.71
2018-09-27T18:30:46.405Z,14.55
2018-09-27T18:33:26.745Z,14.37
2018-09-27T18:36:02.079Z,14.16
2018-09-27T18:38:42.269Z,13.93
2018-09-27T18:41:19.405Z,13.81
2018-09-27T18:43:54.101Z,13.66
2018-09-27T18:46:31.877Z,13.49
2018-09-27T18:49:10.914Z,13.30
2018-09-27T18:51:45.453Z,13.15
2018-09-27T18:54:20.393Z,13.05
2018-09-27T18:56:57.859Z,12.94
2018-09-27T18:59:35.150Z,12.83
2018-09-27T19:02:08.385Z,12.72
2018-09-27T19:04:41.116Z,12.69
2018-09-27T19:07:22.398Z,12.62
2018-09-27T19:10:14.018Z,12.57
2018-09-27T19:12:52.377Z,12.46
2018-09-27T19:15:31.610Z,12.39
2018-09-27T19:18:11.790Z,12.28
2018-09-27T19:20:51.410Z,12.16
2018-09-27T19:23:32.013Z,12.09
2018-09-27T19:26:14.050Z,12.01
2018-09-27T19:28:54.665Z,11.86
2018-09-27T19:31:36.586Z,11.72
2018-09-27T19:34:17.998Z,11.60
2018-09-27T19:37:07.824Z,11.50
2018-09-27T19:39:47.450Z,11.44
2018-09-27T19:42:25.937Z,11.42
2018-09-27T19:45:08.840Z,11.37
2018-09-27T19:47:47.448Z,11.27
2018-09-27T19:50:27.575Z,11.22
2018-09-27T19:53:09.331Z,11.16
2018-09-27T19:55:49.435Z,11.20
2018-09-27T19:58:30.492Z,11.16
2018-09-27T20:01:11.258Z,11.05
2018-09-27T20:03:49.467Z,10.96
2018-09-27T20:06:27.778Z,10.89
2018-09-27T20:09:01.578Z,10.85
2018-09-27T20:11:36.840Z,10.83
2018-09-27T20:14:11.703Z,10.79
2018-09-27T20:16:46.194Z,10.68
2018-09-27T20:19:20.016Z,10.56
2018-09-27T20:21:54.328Z,10.47
2018-09-27T20:24:29.072Z,10.43
2018-09-27T20:27:01.834Z,10.43
2018-09-27T20:29:35.045Z,10.41
2018-09-27T20:32:12.214Z,10.38
2018-09-27T20:34:47.062Z,10.30
2018-09-27T20:37:25.698Z,10.23
2018-09-27T20:39:59.777Z,10.14
2018-09-27T20:42:49.536Z,10.14
2018-09-27T20:45:23.108Z,10.04
2018-09-27T20:47:59.045Z,9.94
2018-09-27T20:50:32.983Z,9.86
2018-09-27T20:53:05.824Z,9.79
2018-09-27T20:55:40.992Z,9.75
2018-09-27T20:58:15.559Z,9.71
2018-09-27T21:00:49.588Z,9.68
2018-09-27T21:03:22.824Z,9.63
2018-09-27T21:05:57.225Z,9.55
2018-09-27T21:08:34.533Z,9.49
2018-09-27T21:11:08.840Z,9.45
2018-09-27T21:13:42.850Z,9.42
2018-09-27T21:16:17.388Z,9.33
2018-09-27T21:18:51.084Z,9.29
2018-09-27T21:21:24.468Z,9.22
2018-09-27T21:23:58.801Z,9.12
2018-09-27T21:26:37.352Z,9.07
2018-09-27T21:29:17.287Z,9.04
2018-09-27T21:31:52.588Z,8.97
2018-09-27T21:34:25.931Z,8.91
2018-09-27T21:37:01.110Z,8.87
2018-09-27T21:39:49.977Z,8.84
2018-09-27T21:42:24.901Z,8.85
2018-09-27T21:44:58.836Z,8.83
2018-09-27T21:47:32.512Z,8.76
2018-09-27T21:50:05.730Z,8.68
2018-09-27T21:52:40.304Z,8.62
2018-09-27T21:55:12.933Z,8.57
2018-09-27T21:57:50.291Z,8.55
2018-09-27T22:00:24.248Z,8.50
2018-09-27T22:02:56.761Z,8.48
2018-09-27T22:05:30.928Z,8.48
2018-09-27T22:08:05.481Z,8.49
2018-09-27T22:10:39.647Z,8.46
2018-09-27T22:13:13.120Z,8.37
2018-09-27T22:15:48.848Z,8.31
2018-09-27T22:18:23.160Z,8.30
2018-09-27T22:20:55.575Z,8.31
2018-09-27T22:23:30.406Z,8.21
2018-09-27T22:26:03.012Z,8.24
2018-09-27T22:28:36.074Z,8.17
2018-09-27T22:31:11.230Z,8.16
2018-09-27T22:33:43.736Z,8.15
2018-09-27T22:36:16.617Z,8.09
2018-09-27T22:38:52.204Z,8.07
2018-09-27T22:41:25.585Z,8.01
2018-09-27T22:43:58.155Z,7.98
2018-09-27T22:46:32.620Z,8.00
2018-09-27T22:49:07.621Z,7.92
2018-09-27T22:51:40.221Z,7.83
2018-09-27T22:54:14.005Z,7.71
2018-09-27T22:56:47.569Z,7.64
2018-09-27T22:59:20.476Z,7.62
2018-09-27T23:01:53.407Z,7.51
2018-09-27T23:04:27.281Z,7.45
2018-09-27T23:06:59.810Z,7.45
2018-09-27T23:09:34.357Z,7.44
2018-09-27T23:12:07.891Z,7.44
2018-09-27T23:14:40.291Z,7.40
2018-09-27T23:17:14.531Z,7.39
2018-09-27T23:19:47.248Z,7.39
2018-09-27T23:22:19.792Z,7.38
2018-09-27T23:24:55.236Z,7.47
2018-09-27T23:27:27.817Z,7.42
2018-09-27T23:30:00.197Z,7.35
2018-09-27T23:32:35.512Z,7.33
2018-09-27T23:35:08.060Z,7.40
2018-09-27T23:37:40.752Z,7.42
2018-09-27T23:40:14.103Z,7.36
2018-09-27T23:42:46.822Z,7.36
2018-09-27T23:45:19.653Z,7.30
2018-09-27T23:47:54.817Z,7.24
2018-09-27T23:50:27.432Z,7.31
2018-09-27T23:52:59.998Z,7.24
2018-09-27T23:55:35.398Z,7.21
2018-09-27T23:58:08.889Z,7.17
